createdAt,value
2019-01-02T00:00:19.513Z,7.30
2019-01-02T00:01:19.495Z,11.70
2019-01-02T00:02:19.527Z,13.80
2019-01-02T00:03:19.495Z,10.70
2019-01-02T00:04:19.471Z,13.70
2019-01-02T00:05:19.459Z,11.00
2019-01-02T00:06:19.452Z,12.20
2019-01-02T00:07:19.432Z,12.40
2019-01-02T00:08:19.426Z,16.40
2019-01-02T00:09:19.428Z,10.60
2019-01-02T00:10:19.408Z,16.20
2019-01-02T00:11:19.387Z,12.20
2019-01-02T00:12:19.376Z,15.90
2019-01-02T00:13:19.362Z,13.10
2019-01-02T00:14:19.367Z,15.70
2019-01-02T00:15:19.343Z,17.00
2019-01-02T00:16:19.332Z,15.80
2019-01-02T00:17:19.323Z,13.90
2019-01-02T00:18:19.313Z,17.70
2019-01-02T00:19:19.316Z,15.50
2019-01-02T00:20:19.298Z,12.90
2019-01-02T00:21:19.275Z,14.00
2019-01-02T00:22:19.266Z,13.20
2019-01-02T00:23:19.252Z,15.80
2019-01-02T00:24:19.251Z,16.00
2019-01-02T00:25:19.237Z,11.70
2019-01-02T00:26:19.221Z,11.60
2019-01-02T00:27:19.218Z,13.20
2019-01-02T00:28:19.199Z,13.20
2019-01-02T00:29:19.199Z,14.70
2019-01-02T00:30:19.176Z,12.30
2019-01-02T00:31:19.170Z,10.70
2019-01-02T00:32:19.163Z,15.00
2019-01-02T00:33:19.144Z,14.40
2019-01-02T00:34:19.144Z,12.30
2019-01-02T00:35:19.122Z,11.80
2019-01-02T00:36:19.123Z,14.60
2019-01-02T00:37:19.095Z,14.50
2019-01-02T00:38:19.086Z,13.80
2019-01-02T00:39:19.089Z,17.30
2019-01-02T00:40:19.064Z,16.60
2019-01-02T00:41:19.056Z,15.20
2019-01-02T00:42:19.064Z,17.20
2019-01-02T00:43:19.035Z,15.00
2019-01-02T00:44:19.033Z,15.70
2019-01-02T00:45:22.334Z,15.60
2019-01-02T00:46:18.996Z,17.00
2019-01-02T00:47:18.989Z,16.40
2019-01-02T00:48:18.986Z,16.30
2019-01-02T00:49:18.986Z,15.70
2019-01-02T00:50:18.979Z,18.00
2019-01-02T00:51:18.945Z,14.30
2019-01-02T00:52:18.937Z,20.00
2019-01-02T00:53:18.937Z,17.00
2019-01-02T00:54:19.219Z,15.00
2019-01-02T00:55:18.899Z,20.20
2019-01-02T00:56:18.888Z,20.50
2019-01-02T00:57:18.879Z,18.50
2019-01-02T00:58:18.869Z,17.40
2019-01-02T00:59:18.870Z,15.30
2019-01-02T01:00:18.857Z,12.80
2019-01-02T01:01:18.842Z,13.40
2019-01-02T01:02:18.833Z,14.30
2019-01-02T01:03:18.812Z,11.70
2019-01-02T01:04:18.803Z,12.00
2019-01-02T01:05:18.802Z,13.00
2019-01-02T01:06:18.795Z,10.30
2019-01-02T01:07:18.769Z,14.10
2019-01-02T01:08:18.756Z,11.60
2019-01-02T01:09:18.746Z,10.90
2019-01-02T01:10:18.745Z,10.30
2019-01-02T01:11:18.735Z,12.50
2019-01-02T01:12:18.719Z,11.00
2019-01-02T01:13:18.702Z,11.30
2019-01-02T01:14:18.693Z,10.30
2019-01-02T01:15:18.690Z,11.30
2019-01-02T01:16:18.677Z,10.00
2019-01-02T01:17:18.660Z,12.40
2019-01-02T01:18:18.648Z,9.80
2019-01-02T01:19:18.649Z,14.00
2019-01-02T01:20:18.636Z,10.00
2019-01-02T01:21:18.617Z,12.70
2019-01-02T01:22:18.608Z,11.20
2019-01-02T01:23:18.607Z,10.40
2019-01-02T01:24:18.583Z,11.30
2019-01-02T01:25:18.586Z,13.30
2019-01-02T01:26:18.559Z,9.90
2019-01-02T01:27:18.551Z,13.60
2019-01-02T01:28:18.546Z,15.20
2019-01-02T01:29:18.529Z,10.60
2019-01-02T01:30:18.530Z,11.50
2019-01-02T01:31:18.508Z,12.90
2019-01-02T01:32:18.493Z,13.80
2019-01-02T01:33:18.482Z,11.30
2019-01-02T01:34:18.472Z,10.10
2019-01-02T01:35:18.472Z,11.50
2019-01-02T01:36:18.450Z,12.70
2019-01-02T01:37:18.438Z,12.70
2019-01-02T01:38:18.427Z,12.00
2019-01-02T01:39:18.419Z,9.30
2019-01-02T01:40:18.422Z,14.30
2019-01-02T01:41:18.391Z,12.30
2019-01-02T01:42:18.381Z,9.90
2019-01-02T01:43:18.371Z,11.20
2019-01-02T01:44:18.368Z,15.00
2019-01-02T01:45:18.360Z,14.40
2019-01-02T01:46:18.340Z,10.80
2019-01-02T01:47:18.328Z,11.90
2019-01-02T01:48:18.313Z,13.90
2019-01-02T01:49:18.309Z,15.70
2019-01-02T01:50:18.306Z,14.50
2019-01-02T01:51:18.284Z,17.10
2019-01-02T01:52:18.271Z,13.10
2019-01-02T01:53:18.339Z,13.30
2019-01-02T01:54:18.250Z,14.40
2019-01-02T01:55:18.239Z,14.80
2019-01-02T01:56:18.238Z,14.00
2019-01-02T01:57:18.219Z,14.60
2019-01-02T01:58:18.223Z,16.60
2019-01-02T01:59:18.191Z,18.00
2019-01-02T02:00:18.183Z,16.80
2019-01-02T02:01:18.190Z,17.10
2019-01-02T02:02:18.164Z,14.80
2019-01-02T02:03:18.150Z,16.30
2019-01-02T02:04:18.141Z,17.70
2019-01-02T02:05:18.126Z,17.60
2019-01-02T02:06:18.131Z,14.20
2019-01-02T02:07:18.107Z,15.10
2019-01-02T02:08:18.096Z,15.80
2019-01-02T02:09:18.084Z,17.00
2019-01-02T02:10:18.074Z,13.00
2019-01-02T02:11:18.075Z,16.10
2019-01-02T02:12:18.060Z,15.40
2019-01-02T02:13:18.049Z,17.20
2019-01-02T02:14:18.037Z,15.70
2019-01-02T02:15:18.019Z,11.70
2019-01-02T02:16:18.021Z,14.30
2019-01-02T02:17:17.998Z,15.80
2019-01-02T02:18:17.987Z,14.60
2019-01-02T02:19:17.976Z,14.80
2019-01-02T02:20:17.967Z,15.90
2019-01-02T02:21:17.967Z,15.70
2019-01-02T02:22:17.941Z,13.50
2019-01-02T02:23:17.936Z,13.20
2019-01-02T02:24:17.920Z,14.80
2019-01-02T02:25:17.910Z,17.30
2019-01-02T02:26:17.911Z,18.40
2019-01-02T02:27:17.896Z,15.30
2019-01-02T02:28:17.878Z,16.10
2019-01-02T02:29:17.867Z,16.00
2019-01-02T02:30:17.865Z,13.50
2019-01-02T02:31:17.878Z,15.60
2019-01-02T02:32:17.831Z,14.00
2019-01-02T02:33:17.822Z,13.20
2019-01-02T02:34:17.847Z,15.60
2019-01-02T02:35:17.801Z,12.50
2019-01-02T02:36:17.791Z,16.40
2019-01-02T02:37:17.809Z,14.50
2019-01-02T02:38:17.766Z,14.90
2019-01-02T02:39:17.754Z,17.40
2019-01-02T02:40:17.745Z,15.80
2019-01-02T02:41:17.739Z,15.50
2019-01-02T02:42:17.741Z,20.70
2019-01-02T02:43:17.711Z,16.40
2019-01-02T02:44:17.701Z,14.50
2019-01-02T02:45:17.691Z,18.30
2019-01-02T02:46:17.681Z,14.80
2019-01-02T02:47:17.679Z,17.60
2019-01-02T02:48:17.657Z,15.20
2019-01-02T02:49:17.649Z,15.90
2019-01-02T02:50:17.637Z,14.80
2019-01-02T02:51:17.622Z,16.40
2019-01-02T02:52:17.625Z,14.00
2019-01-02T02:53:17.600Z,13.30
2019-01-02T02:54:17.593Z,16.50
2019-01-02T02:55:17.604Z,14.50
2019-01-02T02:56:17.566Z,16.50
2019-01-02T02:57:17.567Z,17.50
2019-01-02T02:58:17.548Z,14.70
2019-01-02T02:59:17.539Z,15.90
2019-01-02T03:00:17.525Z,14.60
2019-01-02T03:01:17.511Z,15.70
2019-01-02T03:02:17.514Z,15.20
2019-01-02T03:03:17.492Z,13.60
2019-01-02T03:04:17.485Z,14.60
2019-01-02T03:05:17.474Z,17.50
2019-01-02T03:06:17.455Z,14.90
2019-01-02T03:07:17.447Z,13.90
2019-01-02T03:08:17.447Z,14.50
2019-01-02T03:09:17.430Z,18.80
2019-01-02T03:10:17.410Z,16.10
2019-01-02T03:11:17.402Z,12.90
2019-01-02T03:12:17.395Z,13.00
2019-01-02T03:13:17.393Z,17.20
2019-01-02T03:14:17.379Z,17.50
2019-01-02T03:15:17.360Z,17.00
2019-01-02T03:16:17.346Z,13.30
2019-01-02T03:17:17.333Z,16.50
2019-01-02T03:18:17.334Z,17.00
2019-01-02T03:19:17.311Z,14.70
2019-01-02T03:20:17.306Z,14.90
2019-01-02T03:21:17.291Z,14.00
2019-01-02T03:22:17.293Z,16.60
2019-01-02T03:23:17.285Z,16.60
2019-01-02T03:24:17.261Z,15.40
2019-01-02T03:25:17.266Z,15.80
2019-01-02T03:26:17.236Z,14.20
2019-01-02T03:27:17.224Z,17.20
2019-01-02T03:28:17.233Z,14.40
2019-01-02T03:29:17.207Z,17.00
2019-01-02T03:30:17.194Z,18.10
2019-01-02T03:31:17.183Z,15.60
2019-01-02T03:32:17.174Z,16.00
2019-01-02T03:33:17.184Z,17.30
2019-01-02T03:34:17.145Z,15.00
2019-01-02T03:35:17.135Z,14.30
2019-01-02T03:36:17.126Z,19.90
2019-01-02T03:37:17.114Z,13.40
2019-01-02T03:38:17.112Z,16.70
2019-01-02T03:39:17.092Z,17.70
2019-01-02T03:40:17.082Z,16.90
2019-01-02T03:41:17.069Z,17.50
2019-01-02T03:42:17.060Z,20.20
2019-01-02T03:43:17.061Z,14.10
2019-01-02T03:44:17.037Z,18.30
2019-01-02T03:45:17.030Z,16.60
2019-01-02T03:46:17.019Z,15.40
2019-01-02T03:47:17.005Z,18.00
2019-01-02T03:48:17.011Z,17.80
2019-01-02T03:49:16.983Z,19.80
2019-01-02T03:50:16.968Z,16.40
2019-01-02T03:51:16.959Z,19.30
2019-01-02T03:52:16.951Z,18.00
2019-01-02T03:53:16.940Z,16.30
2019-01-02T03:54:16.940Z,14.00
2019-01-02T03:55:16.924Z,18.20
2019-01-02T03:56:16.910Z,19.10
2019-01-02T03:57:16.895Z,19.00
2019-01-02T03:58:16.888Z,17.10
2019-01-02T03:59:16.885Z,16.50
2019-01-02T04:00:16.867Z,19.30
2019-01-02T04:01:16.855Z,16.10
2019-01-02T04:02:16.840Z,17.60
2019-01-02T04:03:16.826Z,20.70
2019-01-02T04:04:16.831Z,17.10
2019-01-02T04:05:16.805Z,21.90
2019-01-02T04:06:16.794Z,17.40
2019-01-02T04:07:16.783Z,19.50
2019-01-02T04:08:16.781Z,19.80
2019-01-02T04:09:16.775Z,18.60
2019-01-02T04:10:16.755Z,21.10
2019-01-02T04:11:16.745Z,22.80
2019-01-02T04:12:16.730Z,18.80
2019-01-02T04:13:16.719Z,18.10
2019-01-02T04:14:16.722Z,21.30
2019-01-02T04:15:16.694Z,22.10
2019-01-02T04:16:16.684Z,17.90
2019-01-02T04:17:16.674Z,18.60
2019-01-02T04:18:16.667Z,17.40
2019-01-02T04:19:16.676Z,23.10
2019-01-02T04:20:16.638Z,19.50
2019-01-02T04:21:16.628Z,23.30
2019-01-02T04:22:16.617Z,20.80
2019-01-02T04:23:16.609Z,19.80
2019-01-02T04:24:16.596Z,20.70
2019-01-02T04:25:16.593Z,20.50
2019-01-02T04:26:16.573Z,20.70
2019-01-02T04:27:16.566Z,18.10
2019-01-02T04:28:16.555Z,18.60
2019-01-02T04:29:16.541Z,20.00
2019-01-02T04:30:16.540Z,19.90
2019-01-02T04:31:16.523Z,19.00
2019-01-02T04:32:16.507Z,18.60
2019-01-02T04:33:16.503Z,21.30
2019-01-02T04:34:16.484Z,18.70
2019-01-02T04:35:16.494Z,17.80
2019-01-02T04:36:16.470Z,20.10
2019-01-02T04:37:16.455Z,20.80
2019-01-02T04:38:16.442Z,14.90
2019-01-02T04:39:16.429Z,19.40
2019-01-02T04:40:16.431Z,20.00
2019-01-02T04:41:16.410Z,19.60
2019-01-02T04:42:16.403Z,17.40
2019-01-02T04:43:16.385Z,18.40
2019-01-02T04:44:16.379Z,16.30
2019-01-02T04:45:16.382Z,15.10
2019-01-02T04:46:16.355Z,23.60
2019-01-02T04:47:16.340Z,18.30
2019-01-02T04:48:16.334Z,18.10
2019-01-02T04:49:16.320Z,19.40
2019-01-02T04:50:16.310Z,18.90
2019-01-02T04:51:16.308Z,20.90
2019-01-02T04:52:16.288Z,16.20
2019-01-02T04:53:16.278Z,19.30
2019-01-02T04:54:16.264Z,20.30
2019-01-02T04:55:16.261Z,20.30
2019-01-02T04:56:16.250Z,18.50
2019-01-02T04:57:16.242Z,16.10
2019-01-02T04:58:16.223Z,18.10
2019-01-02T04:59:16.216Z,21.80
2019-01-02T05:00:16.198Z,20.30
2019-01-02T05:01:16.201Z,20.60
2019-01-02T05:02:16.176Z,20.40
2019-01-02T05:03:16.164Z,19.40
2019-01-02T05:04:16.158Z,20.70
2019-01-02T05:05:16.145Z,17.00
2019-01-02T05:06:16.143Z,19.50
2019-01-02T05:07:16.122Z,16.80
2019-01-02T05:08:16.115Z,20.10
2019-01-02T05:09:16.096Z,18.90
2019-01-02T05:10:16.091Z,17.40
2019-01-02T05:11:16.092Z,20.20
2019-01-02T05:12:16.088Z,20.20
2019-01-02T05:13:16.060Z,19.00
2019-01-02T05:14:16.045Z,15.50
2019-01-02T05:15:16.034Z,18.20
2019-01-02T05:16:16.035Z,19.60
2019-01-02T05:17:16.009Z,16.40
2019-01-02T05:18:15.998Z,16.90
2019-01-02T05:19:16.003Z,16.60
2019-01-02T05:20:15.983Z,19.80
2019-01-02T05:21:15.984Z,18.20
2019-01-02T05:22:15.954Z,15.40
2019-01-02T05:23:15.942Z,18.30
2019-01-02T05:24:15.935Z,15.40
2019-01-02T05:25:15.924Z,18.80
2019-01-02T05:26:15.924Z,14.60
2019-01-02T05:27:15.918Z,24.40
2019-01-02T05:28:15.888Z,17.00
2019-01-02T05:29:15.879Z,16.80
2019-01-02T05:30:15.872Z,20.70
2019-01-02T05:31:15.877Z,19.40
2019-01-02T05:32:15.856Z,21.80
2019-01-02T05:33:15.834Z,18.80
2019-01-02T05:34:15.823Z,19.40
2019-01-02T05:35:15.812Z,18.80
2019-01-02T05:36:15.812Z,15.00
2019-01-02T05:37:15.788Z,16.30
2019-01-02T05:38:15.779Z,14.00
2019-01-02T05:39:15.767Z,18.50
2019-01-02T05:40:15.764Z,23.80
2019-01-02T05:41:15.757Z,18.80
2019-01-02T05:42:15.737Z,17.20
2019-01-02T05:43:15.725Z,19.60
2019-01-02T05:44:15.714Z,16.10
2019-01-02T05:45:15.699Z,18.00
2019-01-02T05:46:15.708Z,19.30
2019-01-02T05:47:15.684Z,18.60
2019-01-02T05:48:15.667Z,19.50
2019-01-02T05:49:15.657Z,18.80
2019-01-02T05:50:15.654Z,16.70
2019-01-02T05:51:15.638Z,15.60
2019-01-02T05:52:15.633Z,18.40
2019-01-02T05:53:15.613Z,16.80
2019-01-02T05:54:15.601Z,18.90
2019-01-02T05:55:15.592Z,17.70
2019-01-02T05:56:15.583Z,16.10
2019-01-02T05:57:15.579Z,20.20
2019-01-02T05:58:15.566Z,21.40
2019-01-02T05:59:15.555Z,18.70
2019-01-02T06:00:15.537Z,17.90
2019-01-02T06:01:15.524Z,13.00
2019-01-02T06:02:15.529Z,16.10
2019-01-02T06:03:15.502Z,16.10
2019-01-02T06:04:15.497Z,17.80
2019-01-02T06:05:15.490Z,20.20
2019-01-02T06:06:15.472Z,16.80
2019-01-02T06:07:15.468Z,20.00
2019-01-02T06:08:15.448Z,18.50
2019-01-02T06:09:15.441Z,17.00
2019-01-02T06:10:15.450Z,17.20
2019-01-02T06:11:15.418Z,16.50
2019-01-02T06:12:15.420Z,14.60
2019-01-02T06:13:15.393Z,19.10
2019-01-02T06:14:15.381Z,16.30
2019-01-02T06:15:15.376Z,16.20
2019-01-02T06:16:15.361Z,19.30
2019-01-02T06:17:15.359Z,17.60
2019-01-02T06:18:15.340Z,18.90
2019-01-02T06:19:15.326Z,18.20
2019-01-02T06:20:15.329Z,18.70
2019-01-02T06:21:15.309Z,19.00
2019-01-02T06:22:15.303Z,15.70
2019-01-02T06:23:15.283Z,16.00
2019-01-02T06:24:15.278Z,17.80
2019-01-02T06:25:15.262Z,17.50
2019-01-02T06:26:15.255Z,18.70
2019-01-02T06:27:15.276Z,16.70
2019-01-02T06:28:15.225Z,17.40
2019-01-02T06:29:15.246Z,19.00
2019-01-02T06:30:15.268Z,18.30
2019-01-02T06:31:15.197Z,19.40
2019-01-02T06:32:15.188Z,17.50
2019-01-02T06:33:15.191Z,17.40
2019-01-02T06:34:15.164Z,14.90
2019-01-02T06:35:15.151Z,17.30
2019-01-02T06:36:15.138Z,18.10
2019-01-02T06:37:15.134Z,18.90
2019-01-02T06:38:15.269Z,17.50
2019-01-02T06:39:15.109Z,20.90
2019-01-02T06:40:15.103Z,21.50
2019-01-02T06:41:15.085Z,18.70
2019-01-02T06:42:15.084Z,22.40
2019-01-02T06:43:15.074Z,16.70
2019-01-02T06:44:15.055Z,16.90
2019-01-02T06:45:15.039Z,18.10
2019-01-02T06:46:15.030Z,18.80
2019-01-02T06:47:15.042Z,17.10
2019-01-02T06:48:15.056Z,15.10
2019-01-02T06:49:14.997Z,18.90
2019-01-02T06:50:14.992Z,16.50
2019-01-02T06:51:14.977Z,18.00
2019-01-02T06:52:15.000Z,19.50
2019-01-02T06:53:14.958Z,15.50
2019-01-02T06:54:14.961Z,21.30
2019-01-02T06:55:14.931Z,17.40
2019-01-02T06:56:14.922Z,14.80
2019-01-02T06:57:14.911Z,16.90
2019-01-02T06:58:14.896Z,18.70
2019-01-02T06:59:14.897Z,19.60
2019-01-02T07:00:14.886Z,17.20
2019-01-02T07:01:14.862Z,18.40
2019-01-02T07:02:14.854Z,22.80
2019-01-02T07:03:14.841Z,13.80
2019-01-02T07:04:14.871Z,16.50
2019-01-02T07:05:14.820Z,15.40
2019-01-02T07:06:14.820Z,17.40
2019-01-02T07:07:14.798Z,19.80
2019-01-02T07:08:14.786Z,16.40
2019-01-02T07:09:14.793Z,17.90
2019-01-02T07:10:14.765Z,19.00
2019-01-02T07:11:14.754Z,19.40
2019-01-02T07:12:14.744Z,16.80
2019-01-02T07:13:14.731Z,15.70
2019-01-02T07:14:14.733Z,16.40
2019-01-02T07:15:14.709Z,21.80
2019-01-02T07:16:14.700Z,16.30
2019-01-02T07:17:14.686Z,17.00
2019-01-02T07:18:14.678Z,15.80
2019-01-02T07:19:14.681Z,18.20
2019-01-02T07:20:14.660Z,18.10
2019-01-02T07:21:14.647Z,18.40
2019-01-02T07:22:14.634Z,18.40
2019-01-02T07:23:14.623Z,16.50
2019-01-02T07:24:14.620Z,20.00
2019-01-02T07:25:14.599Z,18.10
2019-01-02T07:26:14.591Z,19.70
2019-01-02T07:27:14.587Z,23.00
2019-01-02T07:28:14.574Z,16.60
2019-01-02T07:29:14.565Z,16.20
2019-01-02T07:30:14.547Z,16.00
2019-01-02T07:31:14.540Z,16.20
2019-01-02T07:32:14.522Z,21.80
2019-01-02T07:33:14.516Z,18.20
2019-01-02T07:34:14.515Z,17.30
2019-01-02T07:35:14.490Z,19.90
2019-01-02T07:36:14.480Z,16.60
2019-01-02T07:37:14.467Z,18.00
2019-01-02T07:38:14.465Z,20.80
2019-01-02T07:39:14.461Z,17.00
2019-01-02T07:40:14.685Z,20.30
2019-01-02T07:41:14.424Z,17.80
2019-01-02T07:42:14.412Z,17.70
2019-01-02T07:43:14.407Z,21.50
2019-01-02T07:44:14.411Z,18.80
2019-01-02T07:45:14.380Z,15.30
2019-01-02T07:46:14.368Z,20.80
2019-01-02T07:47:14.360Z,19.30
2019-01-02T07:48:14.347Z,19.00
2019-01-02T07:49:14.359Z,21.60
2019-01-02T07:50:14.324Z,21.20
2019-01-02T07:51:14.315Z,20.80
2019-01-02T07:52:14.306Z,18.40
2019-01-02T07:53:14.296Z,18.20
2019-01-02T07:54:14.281Z,20.70
2019-01-02T07:55:14.286Z,20.10
2019-01-02T07:56:14.270Z,17.70
2019-01-02T07:57:14.248Z,18.70
2019-01-02T07:58:14.236Z,21.00
2019-01-02T07:59:14.225Z,22.30
2019-01-02T08:00:14.228Z,21.90
2019-01-02T08:01:14.206Z,22.10
2019-01-02T08:02:14.219Z,18.00
2019-01-02T08:03:14.184Z,19.00
2019-01-02T08:04:14.171Z,18.40
2019-01-02T08:05:14.174Z,18.50
2019-01-02T08:06:14.156Z,19.60
2019-01-02T08:07:14.157Z,19.40
2019-01-02T08:08:14.132Z,20.90
2019-01-02T08:09:14.127Z,19.60
2019-01-02T08:10:14.125Z,18.40
2019-01-02T08:11:14.096Z,19.60
2019-01-02T08:12:14.109Z,20.30
2019-01-02T08:13:14.083Z,20.80
2019-01-02T08:14:14.063Z,20.80
2019-01-02T08:15:14.061Z,19.10
2019-01-02T08:16:14.044Z,23.80
2019-01-02T08:17:14.032Z,19.30
2019-01-02T08:18:14.022Z,15.80
2019-01-02T08:19:14.022Z,21.00
2019-01-02T08:20:14.034Z,20.10
2019-01-02T08:21:13.996Z,20.60
2019-01-02T08:22:13.982Z,21.90
2019-01-02T08:23:13.965Z,20.80
2019-01-02T08:24:13.964Z,18.50
2019-01-02T08:25:13.966Z,21.50
2019-01-02T08:26:15.280Z,22.00
2019-01-02T08:27:13.945Z,17.70
2019-01-02T08:28:13.928Z,22.20
2019-01-02T08:29:13.905Z,16.20
2019-01-02T08:30:13.901Z,20.00
2019-01-02T08:31:13.876Z,19.20
2019-01-02T08:32:13.868Z,21.80
2019-01-02T08:33:13.855Z,17.90
2019-01-02T08:34:13.860Z,18.20
2019-01-02T08:35:13.843Z,20.30
2019-01-02T08:36:13.828Z,21.50
2019-01-02T08:37:13.822Z,18.70
2019-01-02T08:38:13.802Z,19.50
2019-01-02T08:39:13.792Z,17.00
2019-01-02T08:40:13.802Z,21.10
2019-01-02T08:41:13.770Z,20.90
2019-01-02T08:42:13.759Z,19.50
2019-01-02T08:43:13.746Z,22.20
2019-01-02T08:44:13.736Z,24.40
2019-01-02T08:45:13.748Z,22.70
2019-01-02T08:46:13.711Z,20.30
2019-01-02T08:47:13.723Z,23.30
2019-01-02T08:48:13.690Z,24.80
2019-01-02T08:49:13.690Z,21.70
2019-01-02T08:50:13.693Z,19.20
2019-01-02T08:51:13.672Z,20.50
2019-01-02T08:52:13.670Z,22.50
2019-01-02T08:53:13.649Z,19.10
2019-01-02T08:54:13.623Z,21.40
2019-01-02T08:55:13.616Z,25.00
2019-01-02T08:56:13.616Z,18.90
2019-01-02T08:57:13.600Z,21.10
2019-01-02T08:58:13.582Z,18.50
2019-01-02T08:59:13.579Z,19.00
2019-01-02T09:00:13.560Z,20.50
2019-01-02T09:01:13.563Z,20.00
2019-01-02T09:02:13.535Z,23.10
2019-01-02T09:03:13.525Z,16.30
2019-01-02T09:04:13.513Z,20.70
2019-01-02T09:05:13.504Z,19.00
2019-01-02T09:06:13.570Z,22.60
2019-01-02T09:07:13.497Z,19.60
2019-01-02T09:08:13.514Z,20.80
2019-01-02T09:09:13.518Z,24.00
2019-01-02T09:10:13.454Z,20.10
2019-01-02T09:11:13.447Z,19.60
2019-01-02T09:12:13.426Z,19.90
2019-01-02T09:13:13.423Z,19.90
2019-01-02T09:14:13.406Z,19.20
2019-01-02T09:15:13.398Z,22.00
2019-01-02T09:16:13.415Z,22.10
2019-01-02T09:17:13.378Z,20.40
2019-01-02T09:18:13.360Z,23.00
2019-01-02T09:19:13.347Z,19.60
2019-01-02T09:20:13.343Z,23.20
2019-01-02T09:21:13.337Z,20.50
2019-01-02T09:22:13.316Z,19.40
2019-01-02T09:23:13.308Z,22.80
2019-01-02T09:24:13.303Z,20.10
2019-01-02T09:25:13.279Z,23.90
2019-01-02T09:26:13.286Z,19.50
2019-01-02T09:27:13.270Z,19.90
2019-01-02T09:28:13.248Z,20.30
2019-01-02T09:29:13.244Z,20.60
2019-01-02T09:30:13.259Z,20.60
2019-01-02T09:31:13.241Z,21.30
2019-01-02T09:32:13.202Z,19.80
2019-01-02T09:33:13.189Z,22.40
2019-01-02T09:34:13.229Z,20.80
2019-01-02T09:35:13.223Z,23.10
2019-01-02T09:36:13.201Z,19.90
2019-01-02T09:37:13.150Z,20.40
2019-01-02T09:38:13.139Z,18.50
2019-01-02T09:39:13.127Z,16.90
2019-01-02T09:40:13.121Z,20.40
2019-01-02T09:41:13.102Z,20.90
2019-01-02T09:42:13.103Z,18.70
2019-01-02T09:43:13.092Z,19.50
2019-01-02T09:44:13.073Z,21.10
2019-01-02T09:45:13.076Z,21.50
2019-01-02T09:46:13.051Z,19.40
2019-01-02T09:47:13.051Z,19.80
2019-01-02T09:48:13.028Z,20.00
2019-01-02T09:49:13.062Z,20.10
2019-01-02T09:50:13.082Z,18.90
2019-01-02T09:51:13.017Z,19.10
2019-01-02T09:52:12.991Z,19.00
2019-01-02T09:53:12.984Z,19.60
2019-01-02T09:54:12.964Z,20.50
2019-01-02T09:55:12.949Z,19.20
2019-01-02T09:56:12.950Z,20.30
2019-01-02T09:57:12.957Z,22.00
2019-01-02T09:58:12.915Z,20.00
2019-01-02T09:59:12.938Z,21.30
2019-01-02T10:00:12.916Z,20.40
2019-01-02T10:01:12.894Z,21.70
2019-01-02T10:02:12.906Z,18.10
2019-01-02T10:03:12.860Z,18.00
2019-01-02T10:04:12.853Z,22.40
2019-01-02T10:05:12.838Z,20.40
2019-01-02T10:06:12.829Z,17.50
2019-01-02T10:07:12.851Z,16.60
2019-01-02T10:08:12.811Z,22.20
2019-01-02T10:09:12.796Z,17.70
2019-01-02T10:10:12.785Z,18.50
2019-01-02T10:11:12.774Z,16.90
2019-01-02T10:12:12.796Z,20.90
2019-01-02T10:13:12.747Z,21.80
2019-01-02T10:14:12.740Z,19.20
2019-01-02T10:15:12.727Z,18.20
2019-01-02T10:16:12.714Z,18.10
2019-01-02T10:17:12.727Z,21.60
2019-01-02T10:18:12.701Z,19.70
2019-01-02T10:19:12.710Z,21.50
2019-01-02T10:20:12.692Z,21.00
2019-01-02T10:21:12.663Z,19.20
2019-01-02T10:22:12.671Z,18.00
2019-01-02T10:23:12.640Z,20.10
2019-01-02T10:24:12.631Z,19.70
2019-01-02T10:25:12.621Z,21.30
2019-01-02T10:26:12.602Z,19.20
2019-01-02T10:27:12.613Z,19.60
2019-01-02T10:28:12.595Z,20.00
2019-01-02T10:29:12.572Z,17.40
2019-01-02T10:30:12.559Z,19.90
2019-01-02T10:31:12.551Z,22.10
2019-01-02T10:32:12.561Z,16.70
2019-01-02T10:33:12.542Z,19.00
2019-01-02T10:34:12.516Z,18.40
2019-01-02T10:35:13.787Z,17.50
2019-01-02T10:36:12.494Z,18.60
2019-01-02T10:37:12.501Z,17.50
2019-01-02T10:38:12.491Z,20.00
2019-01-02T10:39:12.471Z,18.90
2019-01-02T10:40:12.453Z,15.60
2019-01-02T10:41:12.443Z,16.90
2019-01-02T10:42:12.452Z,19.10
2019-01-02T10:43:12.418Z,16.20
2019-01-02T10:44:12.405Z,18.90
2019-01-02T10:45:12.409Z,19.30
2019-01-02T10:46:12.383Z,20.30
2019-01-02T10:47:12.373Z,19.80
2019-01-02T10:48:12.381Z,19.20
2019-01-02T10:49:12.368Z,16.50
2019-01-02T10:50:12.343Z,20.00
2019-01-02T10:51:12.327Z,18.60
2019-01-02T10:52:12.318Z,16.70
2019-01-02T10:53:12.332Z,20.00
2019-01-02T10:54:12.309Z,20.20
2019-01-02T10:55:12.306Z,18.50
2019-01-02T10:56:12.305Z,19.50
2019-01-02T10:57:12.283Z,21.40
2019-01-02T10:58:12.272Z,18.50
2019-01-02T10:59:12.247Z,19.80
2019-01-02T11:00:12.241Z,19.50
2019-01-02T11:01:12.217Z,19.00
2019-01-02T11:02:12.215Z,18.70
2019-01-02T11:03:12.260Z,18.90
2019-01-02T11:04:12.188Z,16.60
2019-01-02T11:05:12.173Z,18.40
2019-01-02T11:06:12.216Z,17.70
2019-01-02T11:07:12.183Z,15.70
2019-01-02T11:08:13.598Z,15.90
2019-01-02T11:09:12.127Z,16.50
2019-01-02T11:10:12.123Z,16.60
2019-01-02T11:11:12.169Z,16.10
2019-01-02T11:12:12.095Z,16.00
2019-01-02T11:13:12.115Z,16.50
2019-01-02T11:14:12.073Z,16.50
2019-01-02T11:15:12.061Z,16.50
2019-01-02T11:16:12.051Z,15.50
2019-01-02T11:17:12.070Z,15.80
2019-01-02T11:18:12.047Z,20.30
2019-01-02T11:19:12.020Z,17.10
2019-01-02T11:20:12.019Z,17.50
2019-01-02T11:21:11.998Z,18.50
2019-01-02T11:22:11.986Z,18.90
2019-01-02T11:23:11.994Z,20.40
2019-01-02T11:24:11.979Z,16.90
2019-01-02T11:25:11.959Z,21.10
2019-01-02T11:26:11.939Z,21.10
2019-01-02T11:27:11.931Z,21.40
2019-01-02T11:28:11.932Z,19.10
2019-01-02T11:29:11.908Z,18.90
2019-01-02T11:30:11.895Z,17.60
2019-01-02T11:31:11.899Z,16.30
2019-01-02T11:32:11.874Z,14.90
2019-01-02T11:33:11.896Z,16.00
2019-01-02T11:34:11.854Z,16.90
2019-01-02T11:35:11.846Z,14.80
2019-01-02T11:36:11.833Z,17.20
2019-01-02T11:37:11.817Z,14.40
2019-01-02T11:38:11.808Z,15.40
2019-01-02T11:39:11.807Z,15.50
2019-01-02T11:40:11.791Z,15.10
2019-01-02T11:41:11.778Z,17.30
2019-01-02T11:42:11.776Z,18.90
2019-01-02T11:43:11.755Z,19.10
2019-01-02T11:44:11.752Z,16.90
2019-01-02T11:45:11.735Z,19.10
2019-01-02T11:46:11.725Z,18.70
2019-01-02T11:47:11.712Z,21.20
2019-01-02T11:48:11.704Z,20.10
2019-01-02T11:49:11.697Z,15.60
2019-01-02T11:50:11.679Z,20.20
2019-01-02T11:51:11.666Z,20.60
2019-01-02T11:52:11.659Z,19.80
2019-01-02T11:53:11.676Z,19.70
2019-01-02T11:54:11.649Z,19.60
2019-01-02T11:55:11.622Z,19.60
2019-01-02T11:56:11.605Z,19.00
2019-01-02T11:57:11.596Z,19.20
2019-01-02T11:58:11.591Z,19.30
2019-01-02T11:59:11.591Z,20.00
2019-01-02T12:00:11.576Z,21.90
2019-01-02T12:01:11.555Z,18.50
2019-01-02T12:02:11.540Z,17.80
2019-01-02T12:03:11.553Z,20.20
2019-01-02T12:04:11.528Z,19.30
2019-01-02T12:05:11.514Z,19.30
2019-01-02T12:06:11.498Z,21.70
2019-01-02T12:07:11.488Z,18.00
2019-01-02T12:08:11.482Z,18.80
2019-01-02T12:09:11.480Z,17.20
2019-01-02T12:10:11.464Z,20.30
2019-01-02T12:11:11.444Z,20.30
2019-01-02T12:12:11.432Z,20.00
2019-01-02T12:13:11.418Z,17.60
2019-01-02T12:14:11.446Z,19.80
2019-01-02T12:15:11.398Z,17.90
2019-01-02T12:16:11.384Z,16.30
2019-01-02T12:17:11.377Z,17.70
2019-01-02T12:18:11.373Z,14.10
2019-01-02T12:19:11.363Z,16.80
2019-01-02T12:20:11.340Z,19.20
2019-01-02T12:21:11.333Z,18.90
2019-01-02T12:22:11.326Z,21.10
2019-01-02T12:23:11.313Z,18.30
2019-01-02T12:24:11.318Z,17.30
2019-01-02T12:25:11.285Z,18.50
2019-01-02T12:26:11.276Z,20.00
2019-01-02T12:27:11.264Z,17.10
2019-01-02T12:28:11.260Z,16.70
2019-01-02T12:29:11.269Z,17.60
2019-01-02T12:30:11.238Z,17.50
2019-01-02T12:31:11.224Z,15.80
2019-01-02T12:32:11.208Z,14.70
2019-01-02T12:33:11.197Z,15.90
2019-01-02T12:34:11.186Z,18.50
2019-01-02T12:35:11.205Z,16.40
2019-01-02T12:36:11.173Z,19.60
2019-01-02T12:37:11.154Z,19.30
2019-01-02T12:38:11.143Z,20.50
2019-01-02T12:39:11.147Z,21.50
2019-01-02T12:40:11.131Z,20.00
2019-01-02T12:41:11.123Z,18.50
2019-01-02T12:42:11.097Z,19.70
2019-01-02T12:43:11.105Z,17.80
2019-01-02T12:44:11.076Z,15.80
2019-01-02T12:45:11.075Z,16.40
2019-01-02T12:46:11.058Z,17.60
2019-01-02T12:47:11.088Z,16.50
2019-01-02T12:48:11.063Z,16.10
2019-01-02T12:49:11.022Z,16.00
2019-01-02T12:50:11.020Z,19.00
2019-01-02T12:51:11.007Z,16.40
2019-01-02T12:52:11.004Z,18.20